sensor_id;sensor_type;location;lat;lon;timestamp;P1;durP1;ratioP1;P2;durP2;ratioP2
1567;SDS011;777;47.156;8.326;2022-08-01T00:00:50;6.75;;;2.92;;
1567;SDS011;777;47.156;8.326;2022-08-01T00:03:17;5.50;;;3.33;;
1567;SDS011;777;47.156;8.326;2022-08-01T00:05:44;5.97;;;3.78;;
1567;SDS011;777;47.156;8.326;2022-08-01T00:08:11;8.00;;;4.13;;
1567;SDS011;777;47.156;8.326;2022-08-01T00:10:38;6.05;;;4.10;;
1567;SDS011;777;47.156;8.326;2022-08-01T00:13:07;6.07;;;3.88;;
1567;SDS011;777;47.156;8.326;2022-08-01T00:15:34;4.88;;;3.53;;
1567;SDS011;777;47.156;8.326;2022-08-01T00:18:01;7.10;;;4.63;;
1567;SDS011;777;47.156;8.326;2022-08-01T00:20:28;5.78;;;4.47;;
1567;SDS011;777;47.156;8.326;2022-08-01T00:22:56;5.63;;;4.28;;
1567;SDS011;777;47.156;8.326;2022-08-01T00:25:23;6.40;;;4.65;;
1567;SDS011;777;47.156;8.326;2022-08-01T00:27:50;8.23;;;4.80;;
1567;SDS011;777;47.156;8.326;2022-08-01T00:30:20;7.03;;;4.95;;
1567;SDS011;777;47.156;8.326;2022-08-01T00:32:47;7.55;;;4.72;;
1567;SDS011;777;47.156;8.326;2022-08-01T00:35:14;5.50;;;4.35;;
1567;SDS011;777;47.156;8.326;2022-08-01T00:37:41;4.95;;;4.35;;
1567;SDS011;777;47.156;8.326;2022-08-01T00:40:09;6.97;;;4.55;;
1567;SDS011;777;47.156;8.326;2022-08-01T00:42:36;5.20;;;4.20;;
1567;SDS011;777;47.156;8.326;2022-08-01T00:45:04;5.90;;;3.95;;
1567;SDS011;777;47.156;8.326;2022-08-01T00:47:33;4.47;;;4.00;;
1567;SDS011;777;47.156;8.326;2022-08-01T00:50:00;5.47;;;3.97;;
1567;SDS011;777;47.156;8.326;2022-08-01T00:52:29;6.28;;;3.63;;
1567;SDS011;777;47.156;8.326;2022-08-01T00:54:56;5.82;;;3.83;;
1567;SDS011;777;47.156;8.326;2022-08-01T00:57:23;5.95;;;3.88;;
1567;SDS011;777;47.156;8.326;2022-08-01T00:59:51;5.55;;;3.88;;
1567;SDS011;777;47.156;8.326;2022-08-01T01:02:18;6.75;;;4.15;;
1567;SDS011;777;47.156;8.326;2022-08-01T01:04:47;6.63;;;4.57;;
1567;SDS011;777;47.156;8.326;2022-08-01T01:07:16;5.30;;;3.90;;
1567;SDS011;777;47.156;8.326;2022-08-01T01:09:49;5.82;;;3.88;;
1567;SDS011;777;47.156;8.326;2022-08-01T01:12:25;5.20;;;3.85;;
1567;SDS011;777;47.156;8.326;2022-08-01T01:14:59;6.43;;;4.38;;
1567;SDS011;777;47.156;8.326;2022-08-01T01:17:31;4.50;;;3.60;;
1567;SDS011;777;47.156;8.326;2022-08-01T01:20:05;5.30;;;3.70;;
1567;SDS011;777;47.156;8.326;2022-08-01T01:22:39;7.20;;;3.90;;
1567;SDS011;777;47.156;8.326;2022-08-01T01:25:26;4.80;;;4.30;;
1567;SDS011;777;47.156;8.326;2022-08-01T01:28:08;5.93;;;4.43;;
1567;SDS011;777;47.156;8.326;2022-08-01T01:30:42;6.20;;;3.85;;
1567;SDS011;777;47.156;8.326;2022-08-01T01:33:13;4.20;;;3.35;;
1567;SDS011;777;47.156;8.326;2022-08-01T01:35:43;5.97;;;3.85;;
1567;SDS011;777;47.156;8.326;2022-08-01T01:38:17;6.38;;;4.57;;
1567;SDS011;777;47.156;8.326;2022-08-01T01:40:46;6.90;;;3.88;;
1567;SDS011;777;47.156;8.326;2022-08-01T01:43:15;4.60;;;3.95;;
1567;SDS011;777;47.156;8.326;2022-08-01T01:45:45;5.90;;;4.13;;
1567;SDS011;777;47.156;8.326;2022-08-01T01:48:14;6.03;;;3.60;;
1567;SDS011;777;47.156;8.326;2022-08-01T01:50:45;5.30;;;3.80;;
1567;SDS011;777;47.156;8.326;2022-08-01T01:53:13;5.63;;;3.78;;
1567;SDS011;777;47.156;8.326;2022-08-01T01:55:43;5.53;;;4.20;;
1567;SDS011;777;47.156;8.326;2022-08-01T01:58:12;5.88;;;4.35;;
1567;SDS011;777;47.156;8.326;2022-08-01T02:00:40;5.05;;;3.38;;
1567;SDS011;777;47.156;8.326;2022-08-01T02:03:12;7.43;;;3.72;;
1567;SDS011;777;47.156;8.326;2022-08-01T02:05:41;4.90;;;3.53;;
1567;SDS011;777;47.156;8.326;2022-08-01T02:08:09;3.78;;;3.20;;
1567;SDS011;777;47.156;8.326;2022-08-01T02:10:38;3.65;;;3.13;;
1567;SDS011;777;47.156;8.326;2022-08-01T02:13:06;4.88;;;3.30;;
1567;SDS011;777;47.156;8.326;2022-08-01T02:15:37;4.55;;;3.80;;
1567;SDS011;777;47.156;8.326;2022-08-01T02:18:04;4.65;;;3.05;;
1567;SDS011;777;47.156;8.326;2022-08-01T02:20:35;5.05;;;3.63;;
1567;SDS011;777;47.156;8.326;2022-08-01T02:23:06;6.05;;;3.80;;
1567;SDS011;777;47.156;8.326;2022-08-01T02:25:38;8.03;;;3.77;;
1567;SDS011;777;47.156;8.326;2022-08-01T02:28:09;4.95;;;4.30;;
1567;SDS011;777;47.156;8.326;2022-08-01T02:30:42;4.82;;;4.32;;
1567;SDS011;777;47.156;8.326;2022-08-01T02:33:17;4.68;;;4.13;;
1567;SDS011;777;47.156;8.326;2022-08-01T02:35:50;5.53;;;4.80;;
1567;SDS011;777;47.156;8.326;2022-08-01T02:38:19;5.15;;;4.65;;
1567;SDS011;777;47.156;8.326;2022-08-01T02:40:50;5.25;;;4.65;;
1567;SDS011;777;47.156;8.326;2022-08-01T02:43:23;4.82;;;4.20;;
1567;SDS011;777;47.156;8.326;2022-08-01T02:45:54;4.97;;;4.00;;
1567;SDS011;777;47.156;8.326;2022-08-01T02:48:25;5.30;;;4.05;;
1567;SDS011;777;47.156;8.326;2022-08-01T02:50:57;5.90;;;4.00;;
1567;SDS011;777;47.156;8.326;2022-08-01T02:53:27;4.80;;;4.22;;
1567;SDS011;777;47.156;8.326;2022-08-01T02:56:02;7.78;;;4.60;;
1567;SDS011;777;47.156;8.326;2022-08-01T02:58:31;4.85;;;4.40;;
1567;SDS011;777;47.156;8.326;2022-08-01T03:00:59;7.32;;;4.18;;
1567;SDS011;777;47.156;8.326;2022-08-01T03:03:28;5.07;;;4.43;;
1567;SDS011;777;47.156;8.326;2022-08-01T03:05:57;4.10;;;3.70;;
1567;SDS011;777;47.156;8.326;2022-08-01T03:08:25;6.40;;;4.40;;
1567;SDS011;777;47.156;8.326;2022-08-01T03:10:55;5.10;;;4.28;;
1567;SDS011;777;47.156;8.326;2022-08-01T03:13:24;6.75;;;4.15;;
1567;SDS011;777;47.156;8.326;2022-08-01T03:15:51;6.88;;;4.28;;
1567;SDS011;777;47.156;8.326;2022-08-01T03:18:22;4.70;;;4.28;;
1567;SDS011;777;47.156;8.326;2022-08-01T03:20:51;5.13;;;3.97;;
1567;SDS011;777;47.156;8.326;2022-08-01T03:23:22;4.90;;;4.40;;
1567;SDS011;777;47.156;8.326;2022-08-01T03:25:50;5.60;;;4.30;;
1567;SDS011;777;47.156;8.326;2022-08-01T03:28:18;4.70;;;4.30;;
1567;SDS011;777;47.156;8.326;2022-08-01T03:30:48;4.75;;;4.30;;
1567;SDS011;777;47.156;8.326;2022-08-01T03:33:16;7.28;;;4.50;;
1567;SDS011;777;47.156;8.326;2022-08-01T03:35:45;5.95;;;4.50;;
1567;SDS011;777;47.156;8.326;2022-08-01T03:38:16;5.53;;;4.22;;
1567;SDS011;777;47.156;8.326;2022-08-01T03:40:49;5.75;;;4.32;;
1567;SDS011;777;47.156;8.326;2022-08-01T03:43:21;5.28;;;4.20;;
1567;SDS011;777;47.156;8.326;2022-08-01T03:45:52;5.20;;;4.67;;
1567;SDS011;777;47.156;8.326;2022-08-01T03:48:22;6.05;;;4.47;;
1567;SDS011;777;47.156;8.326;2022-08-01T03:50:54;6.93;;;5.03;;
1567;SDS011;777;47.156;8.326;2022-08-01T03:53:24;6.45;;;5.20;;
1567;SDS011;777;47.156;8.326;2022-08-01T03:55:56;6.47;;;4.57;;
1567;SDS011;777;47.156;8.326;2022-08-01T03:58:26;4.75;;;4.13;;
1567;SDS011;777;47.156;8.326;2022-08-01T04:00:54;7.60;;;4.68;;
1567;SDS011;777;47.156;8.326;2022-08-01T04:03:22;4.65;;;4.22;;
1567;SDS011;777;47.156;8.326;2022-08-01T04:05:49;5.10;;;4.53;;
1567;SDS011;777;47.156;8.326;2022-08-01T04:08:16;6.05;;;5.05;;
1567;SDS011;777;47.156;8.326;2022-08-01T04:10:44;5.53;;;5.03;;
1567;SDS011;777;47.156;8.326;2022-08-01T04:13:12;6.55;;;4.75;;
1567;SDS011;777;47.156;8.326;2022-08-01T04:15:39;6.53;;;5.32;;
1567;SDS011;777;47.156;8.326;2022-08-01T04:18:06;7.13;;;5.57;;
1567;SDS011;777;47.156;8.326;2022-08-01T04:20:33;5.85;;;5.25;;
1567;SDS011;777;47.156;8.326;2022-08-01T04:23:00;6.85;;;5.60;;
1567;SDS011;777;47.156;8.326;2022-08-01T04:25:29;5.95;;;5.20;;
1567;SDS011;777;47.156;8.326;2022-08-01T04:28:00;5.63;;;4.93;;
1567;SDS011;777;47.156;8.326;2022-08-01T04:30:31;7.20;;;5.90;;
1567;SDS011;777;47.156;8.326;2022-08-01T04:33:01;6.65;;;5.25;;
1567;SDS011;777;47.156;8.326;2022-08-01T04:35:30;6.93;;;5.25;;
1567;SDS011;777;47.156;8.326;2022-08-01T04:38:00;6.13;;;5.18;;
1567;SDS011;777;47.156;8.326;2022-08-01T04:40:28;6.63;;;5.45;;
1567;SDS011;777;47.156;8.326;2022-08-01T04:42:56;6.57;;;5.18;;
1567;SDS011;777;47.156;8.326;2022-08-01T04:45:24;8.25;;;5.30;;
1567;SDS011;777;47.156;8.326;2022-08-01T04:47:53;5.75;;;5.00;;
1567;SDS011;777;47.156;8.326;2022-08-01T04:50:20;5.70;;;4.95;;
1567;SDS011;777;47.156;8.326;2022-08-01T04:52:48;9.02;;;5.10;;
1567;SDS011;777;47.156;8.326;2022-08-01T04:55:16;7.47;;;4.90;;
1567;SDS011;777;47.156;8.326;2022-08-01T04:57:44;6.30;;;4.85;;
1567;SDS011;777;47.156;8.326;2022-08-01T05:00:13;8.00;;;4.47;;
1567;SDS011;777;47.156;8.326;2022-08-01T05:02:42;5.53;;;4.40;;
1567;SDS011;777;47.156;8.326;2022-08-01T05:05:11;7.45;;;4.57;;
1567;SDS011;777;47.156;8.326;2022-08-01T05:07:38;6.78;;;4.32;;
1567;SDS011;777;47.156;8.326;2022-08-01T05:10:06;4.82;;;4.40;;
1567;SDS011;777;47.156;8.326;2022-08-01T05:12:33;5.40;;;4.00;;
1567;SDS011;777;47.156;8.326;2022-08-01T05:15:01;8.50;;;3.90;;
1567;SDS011;777;47.156;8.326;2022-08-01T05:17:28;6.07;;;4.07;;
1567;SDS011;777;47.156;8.326;2022-08-01T05:19:56;6.97;;;3.75;;
1567;SDS011;777;47.156;8.326;2022-08-01T05:22:25;4.35;;;3.67;;
1567;SDS011;777;47.156;8.326;2022-08-01T05:24:52;4.40;;;3.80;;
1567;SDS011;777;47.156;8.326;2022-08-01T05:27:19;3.78;;;3.15;;
1567;SDS011;777;47.156;8.326;2022-08-01T05:29:46;6.50;;;3.25;;
1567;SDS011;777;47.156;8.326;2022-08-01T05:32:14;4.40;;;3.10;;
1567;SDS011;777;47.156;8.326;2022-08-01T05:34:41;4.28;;;2.67;;
1567;SDS011;777;47.156;8.326;2022-08-01T05:37:08;3.35;;;2.80;;
1567;SDS011;777;47.156;8.326;2022-08-01T05:39:37;5.10;;;3.22;;
1567;SDS011;777;47.156;8.326;2022-08-01T05:42:04;3.47;;;2.88;;
1567;SDS011;777;47.156;8.326;2022-08-01T05:44:31;3.53;;;2.58;;
1567;SDS011;777;47.156;8.326;2022-08-01T05:46:59;3.85;;;2.88;;
1567;SDS011;777;47.156;8.326;2022-08-01T05:49:27;2.80;;;2.42;;
1567;SDS011;777;47.156;8.326;2022-08-01T05:51:55;6.07;;;2.83;;
1567;SDS011;777;47.156;8.326;2022-08-01T05:54:22;5.07;;;2.92;;
1567;SDS011;777;47.156;8.326;2022-08-01T05:56:52;4.50;;;2.90;;
1567;SDS011;777;47.156;8.326;2022-08-01T05:59:20;6.13;;;3.40;;
1567;SDS011;777;47.156;8.326;2022-08-01T06:01:47;3.70;;;3.30;;
1567;SDS011;777;47.156;8.326;2022-08-01T06:04:14;6.25;;;3.42;;
1567;SDS011;777;47.156;8.326;2022-08-01T06:06:41;5.20;;;3.03;;
1567;SDS011;777;47.156;8.326;2022-08-01T06:09:08;2.80;;;2.60;;
1567;SDS011;777;47.156;8.326;2022-08-01T06:11:35;5.03;;;2.70;;
1567;SDS011;777;47.156;8.326;2022-08-01T06:14:04;3.88;;;3.00;;
1567;SDS011;777;47.156;8.326;2022-08-01T06:16:31;3.40;;;3.10;;
1567;SDS011;777;47.156;8.326;2022-08-01T06:18:58;3.25;;;2.95;;
1567;SDS011;777;47.156;8.326;2022-08-01T06:21:26;4.70;;;3.00;;
1567;SDS011;777;47.156;8.326;2022-08-01T06:23:53;3.65;;;2.60;;
1567;SDS011;777;47.156;8.326;2022-08-01T06:26:20;5.55;;;2.95;;
1567;SDS011;777;47.156;8.326;2022-08-01T06:28:47;5.22;;;3.05;;
1567;SDS011;777;47.156;8.326;2022-08-01T06:31:15;3.63;;;3.00;;
1567;SDS011;777;47.156;8.326;2022-08-01T06:33:43;6.18;;;3.25;;
1567;SDS011;777;47.156;8.326;2022-08-01T06:36:10;5.97;;;3.08;;
1567;SDS011;777;47.156;8.326;2022-08-01T06:38:37;2.90;;;2.58;;
1567;SDS011;777;47.156;8.326;2022-08-01T06:41:04;3.58;;;2.70;;
1567;SDS011;777;47.156;8.326;2022-08-01T06:43:31;3.22;;;2.90;;
1567;SDS011;777;47.156;8.326;2022-08-01T06:45:58;3.65;;;2.88;;
1567;SDS011;777;47.156;8.326;2022-08-01T06:48:27;5.88;;;3.03;;
1567;SDS011;777;47.156;8.326;2022-08-01T06:50:54;4.47;;;2.78;;
1567;SDS011;777;47.156;8.326;2022-08-01T06:53:33;4.65;;;3.00;;
1567;SDS011;777;47.156;8.326;2022-08-01T06:56:01;3.30;;;3.00;;
1567;SDS011;777;47.156;8.326;2022-08-01T06:58:29;5.88;;;2.67;;
1567;SDS011;777;47.156;8.326;2022-08-01T07:00:56;4.43;;;3.10;;
1567;SDS011;777;47.156;8.326;2022-08-01T07:03:24;3.33;;;2.60;;
1567;SDS011;777;47.156;8.326;2022-08-01T07:05:52;4.55;;;2.47;;
1567;SDS011;777;47.156;8.326;2022-08-01T07:08:20;4.18;;;2.60;;
1567;SDS011;777;47.156;8.326;2022-08-01T07:10:47;4.18;;;2.85;;
1567;SDS011;777;47.156;8.326;2022-08-01T07:13:14;3.53;;;3.22;;
1567;SDS011;777;47.156;8.326;2022-08-01T07:15:45;3.53;;;3.22;;
1567;SDS011;777;47.156;8.326;2022-08-01T07:18:12;4.47;;;3.20;;
1567;SDS011;777;47.156;8.326;2022-08-01T07:20:40;4.30;;;3.20;;
1567;SDS011;777;47.156;8.326;2022-08-01T07:23:08;4.28;;;2.80;;
1567;SDS011;777;47.156;8.326;2022-08-01T07:25:35;6.22;;;3.00;;
1567;SDS011;777;47.156;8.326;2022-08-01T07:28:02;5.25;;;3.05;;
1567;SDS011;777;47.156;8.326;2022-08-01T07:30:30;3.67;;;2.67;;
1567;SDS011;777;47.156;8.326;2022-08-01T07:32:57;2.70;;;2.50;;
1567;SDS011;777;47.156;8.326;2022-08-01T07:35:24;5.72;;;3.13;;
1567;SDS011;777;47.156;8.326;2022-08-01T07:37:51;5.63;;;2.47;;
1567;SDS011;777;47.156;8.326;2022-08-01T07:40:20;5.72;;;2.40;;
1567;SDS011;777;47.156;8.326;2022-08-01T07:42:47;2.97;;;2.15;;
1567;SDS011;777;47.156;8.326;2022-08-01T07:45:15;3.72;;;2.30;;
1567;SDS011;777;47.156;8.326;2022-08-01T07:47:42;4.70;;;2.22;;
1567;SDS011;777;47.156;8.326;2022-08-01T07:50:10;3.47;;;2.17;;
1567;SDS011;777;47.156;8.326;2022-08-01T07:52:38;3.30;;;2.33;;
1567;SDS011;777;47.156;8.326;2022-08-01T07:55:05;3.10;;;2.13;;
1567;SDS011;777;47.156;8.326;2022-08-01T07:57:35;3.15;;;2.40;;
1567;SDS011;777;47.156;8.326;2022-08-01T08:00:02;3.35;;;2.38;;
1567;SDS011;777;47.156;8.326;2022-08-01T08:02:31;4.95;;;2.10;;
1567;SDS011;777;47.156;8.326;2022-08-01T08:04:58;2.92;;;2.10;;
1567;SDS011;777;47.156;8.326;2022-08-01T08:07:25;4.40;;;2.22;;
1567;SDS011;777;47.156;8.326;2022-08-01T08:09:52;3.45;;;2.00;;
1567;SDS011;777;47.156;8.326;2022-08-01T08:12:19;3.40;;;2.35;;
1567;SDS011;777;47.156;8.326;2022-08-01T08:14:48;2.95;;;2.20;;
1567;SDS011;777;47.156;8.326;2022-08-01T08:17:15;2.65;;;2.03;;
1567;SDS011;777;47.156;8.326;2022-08-01T08:19:42;5.35;;;2.20;;
1567;SDS011;777;47.156;8.326;2022-08-01T08:22:10;2.88;;;2.20;;
1567;SDS011;777;47.156;8.326;2022-08-01T08:24:37;2.10;;;1.80;;
1567;SDS011;777;47.156;8.326;2022-08-01T08:27:04;3.03;;;2.00;;
1567;SDS011;777;47.156;8.326;2022-08-01T08:29:32;4.90;;;2.25;;
1567;SDS011;777;47.156;8.326;2022-08-01T08:32:01;2.63;;;1.90;;
1567;SDS011;777;47.156;8.326;2022-08-01T08:34:29;2.03;;;1.65;;
1567;SDS011;777;47.156;8.326;2022-08-01T08:36:56;1.92;;;1.65;;
1567;SDS011;777;47.156;8.326;2022-08-01T08:39:25;2.17;;;1.80;;
1567;SDS011;777;47.156;8.326;2022-08-01T08:41:54;3.45;;;1.75;;
1567;SDS011;777;47.156;8.326;2022-08-01T08:44:23;4.90;;;1.52;;
1567;SDS011;777;47.156;8.326;2022-08-01T08:46:51;4.53;;;1.70;;
1567;SDS011;777;47.156;8.326;2022-08-01T08:49:23;2.20;;;1.80;;
1567;SDS011;777;47.156;8.326;2022-08-01T08:51:52;3.20;;;1.90;;
1567;SDS011;777;47.156;8.326;2022-08-01T08:54:20;4.05;;;1.80;;
1567;SDS011;777;47.156;8.326;2022-08-01T08:56:49;3.15;;;1.67;;
1567;SDS011;777;47.156;8.326;2022-08-01T08:59:17;2.28;;;1.70;;
1567;SDS011;777;47.156;8.326;2022-08-01T09:01:45;4.70;;;1.80;;
1567;SDS011;777;47.156;8.326;2022-08-01T09:04:13;1.95;;;1.65;;
1567;SDS011;777;47.156;8.326;2022-08-01T09:06:42;2.92;;;1.60;;
1567;SDS011;777;47.156;8.326;2022-08-01T09:09:09;2.65;;;1.80;;
1567;SDS011;777;47.156;8.326;2022-08-01T09:11:37;7.28;;;1.75;;
1567;SDS011;777;47.156;8.326;2022-08-01T09:14:05;2.88;;;1.67;;
1567;SDS011;777;47.156;8.326;2022-08-01T09:16:34;2.42;;;1.45;;
1567;SDS011;777;47.156;8.326;2022-08-01T09:19:06;5.32;;;1.70;;
1567;SDS011;777;47.156;8.326;2022-08-01T09:21:35;3.28;;;1.50;;
1567;SDS011;777;47.156;8.326;2022-08-01T09:24:12;2.67;;;1.30;;
1567;SDS011;777;47.156;8.326;2022-08-01T09:26:40;2.10;;;1.20;;
1567;SDS011;777;47.156;8.326;2022-08-01T09:29:08;4.07;;;1.45;;
1567;SDS011;777;47.156;8.326;2022-08-01T09:31:45;3.35;;;1.40;;
1567;SDS011;777;47.156;8.326;2022-08-01T09:34:13;4.72;;;1.50;;
1567;SDS011;777;47.156;8.326;2022-08-01T09:36:45;1.88;;;1.40;;
1567;SDS011;777;47.156;8.326;2022-08-01T09:39:18;2.75;;;1.50;;
1567;SDS011;777;47.156;8.326;2022-08-01T09:41:47;4.22;;;1.98;;
1567;SDS011;777;47.156;8.326;2022-08-01T09:44:14;4.45;;;1.52;;
1567;SDS011;777;47.156;8.326;2022-08-01T09:46:50;2.70;;;1.42;;
1567;SDS011;777;47.156;8.326;2022-08-01T09:49:28;1.98;;;1.50;;
1567;SDS011;777;47.156;8.326;2022-08-01T09:51:57;2.40;;;1.60;;
1567;SDS011;777;47.156;8.326;2022-08-01T09:54:29;3.55;;;1.60;;
1567;SDS011;777;47.156;8.326;2022-08-01T09:57:07;2.38;;;1.42;;
1567;SDS011;777;47.156;8.326;2022-08-01T09:59:35;1.35;;;1.23;;
1567;SDS011;777;47.156;8.326;2022-08-01T10:02:05;3.33;;;1.50;;
1567;SDS011;777;47.156;8.326;2022-08-01T10:04:33;1.90;;;1.20;;
1567;SDS011;777;47.156;8.326;2022-08-01T10:07:04;2.83;;;1.50;;
1567;SDS011;777;47.156;8.326;2022-08-01T10:09:34;2.33;;;1.20;;
1567;SDS011;777;47.156;8.326;2022-08-01T10:12:02;1.83;;;1.30;;
1567;SDS011;777;47.156;8.326;2022-08-01T10:14:31;2.78;;;1.20;;
1567;SDS011;777;47.156;8.326;2022-08-01T10:16:59;1.42;;;1.10;;
1567;SDS011;777;47.156;8.326;2022-08-01T10:19:28;2.13;;;1.25;;
1567;SDS011;777;47.156;8.326;2022-08-01T10:21:57;2.10;;;1.35;;
1567;SDS011;777;47.156;8.326;2022-08-01T10:24:26;3.38;;;1.50;;
1567;SDS011;777;47.156;8.326;2022-08-01T10:26:58;1.88;;;1.58;;
1567;SDS011;777;47.156;8.326;2022-08-01T10:29:31;4.13;;;1.90;;
1567;SDS011;777;47.156;8.326;2022-08-01T10:32:02;3.43;;;1.53;;
1567;SDS011;777;47.156;8.326;2022-08-01T10:34:31;3.75;;;1.60;;
1567;SDS011;777;47.156;8.326;2022-08-01T10:36:59;2.08;;;1.60;;
1567;SDS011;777;47.156;8.326;2022-08-01T10:39:27;2.00;;;1.30;;
1567;SDS011;777;47.156;8.326;2022-08-01T10:41:57;3.15;;;1.30;;
1567;SDS011;777;47.156;8.326;2022-08-01T10:44:26;2.78;;;1.27;;
1567;SDS011;777;47.156;8.326;2022-08-01T10:46:55;2.88;;;1.45;;
1567;SDS011;777;47.156;8.326;2022-08-01T10:49:29;1.85;;;1.33;;
1567;SDS011;777;47.156;8.326;2022-08-01T10:51:58;1.90;;;1.20;;
1567;SDS011;777;47.156;8.326;2022-08-01T10:54:25;4.80;;;1.80;;
1567;SDS011;777;47.156;8.326;2022-08-01T10:56:53;1.88;;;1.20;;
1567;SDS011;777;47.156;8.326;2022-08-01T10:59:23;1.33;;;1.20;;
1567;SDS011;777;47.156;8.326;2022-08-01T11:01:55;1.95;;;1.48;;
1567;SDS011;777;47.156;8.326;2022-08-01T11:04:32;2.20;;;1.63;;
1567;SDS011;777;47.156;8.326;2022-08-01T11:07:04;8.02;;;4.57;;
1567;SDS011;777;47.156;8.326;2022-08-01T11:09:39;2.70;;;2.25;;
1567;SDS011;777;47.156;8.326;2022-08-01T11:12:08;2.75;;;1.25;;
1567;SDS011;777;47.156;8.326;2022-08-01T11:17:44;1.98;;;1.23;;
1567;SDS011;777;47.156;8.326;2022-08-01T11:20:14;1.67;;;1.20;;
1567;SDS011;777;47.156;8.326;2022-08-01T11:28:42;1.80;;;1.08;;
1567;SDS011;777;47.156;8.326;2022-08-01T11:34:01;2.20;;;0.90;;
1567;SDS011;777;47.156;8.326;2022-08-01T11:36:28;1.20;;;0.90;;
1567;SDS011;777;47.156;8.326;2022-08-01T11:39:12;1.45;;;1.05;;
1567;SDS011;777;47.156;8.326;2022-08-01T11:41:43;1.65;;;1.25;;
1567;SDS011;777;47.156;8.326;2022-08-01T11:44:13;2.25;;;1.20;;
1567;SDS011;777;47.156;8.326;2022-08-01T11:46:45;2.13;;;1.15;;
1567;SDS011;777;47.156;8.326;2022-08-01T11:49:29;4.20;;;1.02;;
1567;SDS011;777;47.156;8.326;2022-08-01T11:52:00;2.42;;;1.38;;
1567;SDS011;777;47.156;8.326;2022-08-01T11:54:30;1.88;;;1.10;;
1567;SDS011;777;47.156;8.326;2022-08-01T11:57:00;1.70;;;1.00;;
1567;SDS011;777;47.156;8.326;2022-08-01T11:59:34;2.40;;;0.95;;
1567;SDS011;777;47.156;8.326;2022-08-01T12:02:16;2.15;;;0.98;;
1567;SDS011;777;47.156;8.326;2022-08-01T12:04:56;2.00;;;1.02;;
1567;SDS011;777;47.156;8.326;2022-08-01T12:07:25;1.83;;;1.05;;
1567;SDS011;777;47.156;8.326;2022-08-01T12:10:00;3.50;;;1.85;;
1567;SDS011;777;47.156;8.326;2022-08-01T12:12:30;3.60;;;0.95;;
1567;SDS011;777;47.156;8.326;2022-08-01T12:14:59;1.80;;;1.25;;
1567;SDS011;777;47.156;8.326;2022-08-01T12:17:28;1.10;;;0.80;;
1567;SDS011;777;47.156;8.326;2022-08-01T12:19:58;1.17;;;0.88;;
1567;SDS011;777;47.156;8.326;2022-08-01T12:22:26;1.00;;;0.85;;
1567;SDS011;777;47.156;8.326;2022-08-01T12:24:53;2.55;;;1.00;;
1567;SDS011;777;47.156;8.326;2022-08-01T12:27:24;1.60;;;0.80;;
1567;SDS011;777;47.156;8.326;2022-08-01T12:29:52;1.30;;;0.90;;
1567;SDS011;777;47.156;8.326;2022-08-01T12:32:23;1.30;;;0.90;;
1567;SDS011;777;47.156;8.326;2022-08-01T12:34:52;1.25;;;0.90;;
1567;SDS011;777;47.156;8.326;2022-08-01T12:37:22;2.38;;;1.23;;
1567;SDS011;777;47.156;8.326;2022-08-01T12:39:49;3.53;;;1.10;;
1567;SDS011;777;47.156;8.326;2022-08-01T12:42:16;1.73;;;0.90;;
1567;SDS011;777;47.156;8.326;2022-08-01T12:44:45;3.03;;;0.88;;
1567;SDS011;777;47.156;8.326;2022-08-01T12:47:14;1.20;;;0.82;;
1567;SDS011;777;47.156;8.326;2022-08-01T12:49:42;1.20;;;0.63;;
1567;SDS011;777;47.156;8.326;2022-08-01T12:52:10;0.95;;;0.60;;
1567;SDS011;777;47.156;8.326;2022-08-01T12:57:30;3.22;;;1.15;;
1567;SDS011;777;47.156;8.326;2022-08-01T13:00:11;0.55;;;0.50;;
1567;SDS011;777;47.156;8.326;2022-08-01T13:02:40;1.20;;;0.73;;
1567;SDS011;777;47.156;8.326;2022-08-01T13:05:09;0.85;;;0.50;;
1567;SDS011;777;47.156;8.326;2022-08-01T13:07:37;1.48;;;0.60;;
1567;SDS011;777;47.156;8.326;2022-08-01T13:10:07;1.80;;;0.70;;
1567;SDS011;777;47.156;8.326;2022-08-01T13:12:36;0.88;;;0.60;;
1567;SDS011;777;47.156;8.326;2022-08-01T13:15:16;1.00;;;0.60;;
1567;SDS011;777;47.156;8.326;2022-08-01T13:17:52;1.10;;;0.50;;
1567;SDS011;777;47.156;8.326;2022-08-01T13:20:27;1.08;;;0.47;;
1567;SDS011;777;47.156;8.326;2022-08-01T13:22:55;1.08;;;0.50;;
1567;SDS011;777;47.156;8.326;2022-08-01T13:25:47;1.80;;;0.40;;
1567;SDS011;777;47.156;8.326;2022-08-01T13:28:16;0.60;;;0.30;;
1567;SDS011;777;47.156;8.326;2022-08-01T13:30:54;0.88;;;0.75;;
1567;SDS011;777;47.156;8.326;2022-08-01T13:33:23;1.05;;;0.40;;
1567;SDS011;777;47.156;8.326;2022-08-01T13:35:52;2.25;;;0.60;;
1567;SDS011;777;47.156;8.326;2022-08-01T13:38:20;2.78;;;0.63;;
1567;SDS011;777;47.156;8.326;2022-08-01T13:41:09;1.15;;;0.50;;
1567;SDS011;777;47.156;8.326;2022-08-01T13:43:36;0.50;;;0.45;;
1567;SDS011;777;47.156;8.326;2022-08-01T13:46:03;0.80;;;0.40;;
1567;SDS011;777;47.156;8.326;2022-08-01T13:48:31;0.65;;;0.30;;
1567;SDS011;777;47.156;8.326;2022-08-01T13:50:59;0.50;;;0.22;;
1567;SDS011;777;47.156;8.326;2022-08-01T13:53:27;1.88;;;0.38;;
1567;SDS011;777;47.156;8.326;2022-08-01T13:55:54;0.40;;;0.30;;
1567;SDS011;777;47.156;8.326;2022-08-01T13:58:23;0.73;;;0.43;;
1567;SDS011;777;47.156;8.326;2022-08-01T14:00:50;0.77;;;0.22;;
1567;SDS011;777;47.156;8.326;2022-08-01T14:03:17;0.45;;;0.30;;
1567;SDS011;777;47.156;8.326;2022-08-01T14:05:45;0.65;;;0.20;;
1567;SDS011;777;47.156;8.326;2022-08-01T14:08:12;0.32;;;0.20;;
1567;SDS011;777;47.156;8.326;2022-08-01T14:10:40;0.52;;;0.30;;
1567;SDS011;777;47.156;8.326;2022-08-01T14:13:07;0.32;;;0.20;;
1567;SDS011;777;47.156;8.326;2022-08-01T14:15:35;0.30;;;0.20;;
1567;SDS011;777;47.156;8.326;2022-08-01T14:18:03;1.58;;;0.28;;
1567;SDS011;777;47.156;8.326;2022-08-01T14:20:30;0.30;;;0.20;;
1567;SDS011;777;47.156;8.326;2022-08-01T14:22:58;0.93;;;0.30;;
1567;SDS011;777;47.156;8.326;2022-08-01T14:25:25;1.05;;;0.30;;
1567;SDS011;777;47.156;8.326;2022-08-01T14:27:52;0.20;;;0.20;;
1567;SDS011;777;47.156;8.326;2022-08-01T14:30:19;2.30;;;0.40;;
1567;SDS011;777;47.156;8.326;2022-08-01T14:32:48;0.57;;;0.35;;
1567;SDS011;777;47.156;8.326;2022-08-01T14:35:15;0.63;;;0.30;;
1567;SDS011;777;47.156;8.326;2022-08-01T14:37:42;1.17;;;0.40;;
1567;SDS011;777;47.156;8.326;2022-08-01T14:40:09;0.32;;;0.32;;
1567;SDS011;777;47.156;8.326;2022-08-01T14:42:38;0.73;;;0.38;;
1567;SDS011;777;47.156;8.326;2022-08-01T14:45:05;0.68;;;0.47;;
1567;SDS011;777;47.156;8.326;2022-08-01T14:47:35;0.93;;;0.40;;
1567;SDS011;777;47.156;8.326;2022-08-01T14:50:05;0.88;;;0.40;;
1567;SDS011;777;47.156;8.326;2022-08-01T14:52:33;2.15;;;0.60;;
1567;SDS011;777;47.156;8.326;2022-08-01T14:55:01;2.42;;;0.70;;
1567;SDS011;777;47.156;8.326;2022-08-01T14:57:29;0.68;;;0.50;;
1567;SDS011;777;47.156;8.326;2022-08-01T14:59:56;1.67;;;0.40;;
1567;SDS011;777;47.156;8.326;2022-08-01T15:02:23;0.70;;;0.40;;
1567;SDS011;777;47.156;8.326;2022-08-01T15:04:50;1.55;;;0.73;;
1567;SDS011;777;47.156;8.326;2022-08-01T15:07:20;2.13;;;0.50;;
1567;SDS011;777;47.156;8.326;2022-08-01T15:09:47;1.10;;;0.50;;
1567;SDS011;777;47.156;8.326;2022-08-01T15:12:14;1.35;;;0.50;;
1567;SDS011;777;47.156;8.326;2022-08-01T15:14:41;0.55;;;0.40;;
1567;SDS011;777;47.156;8.326;2022-08-01T15:17:14;0.98;;;0.60;;
1567;SDS011;777;47.156;8.326;2022-08-01T15:19:42;0.70;;;0.40;;
1567;SDS011;777;47.156;8.326;2022-08-01T15:22:09;1.63;;;0.65;;
1567;SDS011;777;47.156;8.326;2022-08-01T15:24:37;2.25;;;0.60;;
1567;SDS011;777;47.156;8.326;2022-08-01T15:27:05;1.17;;;0.60;;
1567;SDS011;777;47.156;8.326;2022-08-01T15:29:32;0.75;;;0.50;;
1567;SDS011;777;47.156;8.326;2022-08-01T15:31:59;1.10;;;0.68;;
1567;SDS011;777;47.156;8.326;2022-08-01T15:34:27;1.27;;;1.08;;
1567;SDS011;777;47.156;8.326;2022-08-01T15:36:54;2.67;;;1.85;;
1567;SDS011;777;47.156;8.326;2022-08-01T15:39:21;1.80;;;1.27;;
1567;SDS011;777;47.156;8.326;2022-08-01T15:41:49;1.08;;;0.60;;
1567;SDS011;777;47.156;8.326;2022-08-01T15:44:17;0.90;;;0.50;;
1567;SDS011;777;47.156;8.326;2022-08-01T15:46:45;0.82;;;0.40;;
1567;SDS011;777;47.156;8.326;2022-08-01T15:49:12;1.55;;;0.50;;
1567;SDS011;777;47.156;8.326;2022-08-01T15:51:39;1.92;;;0.60;;
1567;SDS011;777;47.156;8.326;2022-08-01T15:54:07;2.00;;;0.68;;
1567;SDS011;777;47.156;8.326;2022-08-01T15:56:35;0.88;;;0.60;;